Terminal Aerodrome Forecast
Issued by NWS Corpus Christi, TX

Home | Current Version | Previous Version | Text Only | Print | Product List | Glossary On
Versions: 1 2 3 4 5 6 7 8 9 10 11 12 13 14 15 16 17 18
000
FTUS44 KCRP 192300
TAFVCT
TAF
KVCT 192330Z 2000/2024 01011KT P6SM BKN015
     FM200800 36007KT 5SM BR FEW005 OVC012
     FM201600 03012KT P6SM BKN018
     FM202200 02008KT P6SM SCT030=

USA.gov is the U.S. government's official web portal to all federal, state and local government web resources and services.